sensor_id;sensor_type;location;lat;lon;timestamp;P1;durP1;ratioP1;P2;durP2;ratioP2
11510;SDS011;5812;48.864;9.190;2023-02-19T00:00:19;4.43;;;4.43;;
11510;SDS011;5812;48.864;9.190;2023-02-19T00:02:46;4.30;;;4.30;;
11510;SDS011;5812;48.864;9.190;2023-02-19T00:05:12;4.57;;;4.57;;
11510;SDS011;5812;48.864;9.190;2023-02-19T00:07:37;4.60;;;4.60;;
11510;SDS011;5812;48.864;9.190;2023-02-19T00:10:03;4.50;;;4.50;;
11510;SDS011;5812;48.864;9.190;2023-02-19T00:12:29;4.90;;;4.90;;
11510;SDS011;5812;48.864;9.190;2023-02-19T00:14:54;5.00;;;5.00;;
11510;SDS011;5812;48.864;9.190;2023-02-19T00:17:21;4.73;;;4.73;;
11510;SDS011;5812;48.864;9.190;2023-02-19T00:19:46;4.87;;;4.87;;
11510;SDS011;5812;48.864;9.190;2023-02-19T00:22:12;5.07;;;5.07;;
11510;SDS011;5812;48.864;9.190;2023-02-19T00:24:37;4.10;;;4.10;;
11510;SDS011;5812;48.864;9.190;2023-02-19T00:27:03;4.43;;;4.43;;
11510;SDS011;5812;48.864;9.190;2023-02-19T00:29:28;5.30;;;5.30;;
11510;SDS011;5812;48.864;9.190;2023-02-19T00:31:54;5.27;;;5.27;;
11510;SDS011;5812;48.864;9.190;2023-02-19T00:34:19;5.10;;;5.10;;
11510;SDS011;5812;48.864;9.190;2023-02-19T00:36:45;5.47;;;5.47;;
11510;SDS011;5812;48.864;9.190;2023-02-19T00:39:14;6.07;;;6.07;;
11510;SDS011;5812;48.864;9.190;2023-02-19T00:41:42;5.80;;;5.80;;
11510;SDS011;5812;48.864;9.190;2023-02-19T00:44:08;5.53;;;5.53;;
11510;SDS011;5812;48.864;9.190;2023-02-19T00:46:36;5.70;;;5.70;;
11510;SDS011;5812;48.864;9.190;2023-02-19T00:49:04;5.97;;;5.97;;
11510;SDS011;5812;48.864;9.190;2023-02-19T00:51:31;5.43;;;5.43;;
11510;SDS011;5812;48.864;9.190;2023-02-19T00:53:59;5.53;;;5.53;;
11510;SDS011;5812;48.864;9.190;2023-02-19T00:56:25;5.43;;;5.43;;
11510;SDS011;5812;48.864;9.190;2023-02-19T00:58:51;5.60;;;5.60;;
11510;SDS011;5812;48.864;9.190;2023-02-19T01:01:18;4.93;;;4.93;;
11510;SDS011;5812;48.864;9.190;2023-02-19T01:03:44;5.40;;;5.40;;
11510;SDS011;5812;48.864;9.190;2023-02-19T01:06:10;4.80;;;4.80;;
11510;SDS011;5812;48.864;9.190;2023-02-19T01:08:37;5.03;;;5.03;;
11510;SDS011;5812;48.864;9.190;2023-02-19T01:11:03;5.20;;;5.20;;
11510;SDS011;5812;48.864;9.190;2023-02-19T01:13:30;4.93;;;4.93;;
11510;SDS011;5812;48.864;9.190;2023-02-19T01:16:06;5.70;;;5.70;;
11510;SDS011;5812;48.864;9.190;2023-02-19T01:18:33;5.47;;;5.47;;
11510;SDS011;5812;48.864;9.190;2023-02-19T01:21:03;5.17;;;5.17;;
11510;SDS011;5812;48.864;9.190;2023-02-19T01:23:33;4.77;;;4.77;;
11510;SDS011;5812;48.864;9.190;2023-02-19T01:26:02;4.73;;;4.73;;
11510;SDS011;5812;48.864;9.190;2023-02-19T01:28:29;5.47;;;5.47;;
11510;SDS011;5812;48.864;9.190;2023-02-19T01:30:54;5.03;;;5.03;;
11510;SDS011;5812;48.864;9.190;2023-02-19T01:33:24;5.10;;;5.10;;
11510;SDS011;5812;48.864;9.190;2023-02-19T01:35:49;5.10;;;5.10;;
11510;SDS011;5812;48.864;9.190;2023-02-19T01:38:15;4.90;;;4.90;;
11510;SDS011;5812;48.864;9.190;2023-02-19T01:40:40;4.80;;;4.80;;
11510;SDS011;5812;48.864;9.190;2023-02-19T01:43:10;5.33;;;5.33;;
11510;SDS011;5812;48.864;9.190;2023-02-19T01:45:42;4.93;;;4.93;;
11510;SDS011;5812;48.864;9.190;2023-02-19T01:50:44;5.77;;;5.77;;
11510;SDS011;5812;48.864;9.190;2023-02-19T01:53:25;6.07;;;6.07;;
11510;SDS011;5812;48.864;9.190;2023-02-19T01:55:56;6.17;;;6.17;;
11510;SDS011;5812;48.864;9.190;2023-02-19T01:58:24;6.03;;;6.03;;
11510;SDS011;5812;48.864;9.190;2023-02-19T02:00:52;5.77;;;5.77;;
11510;SDS011;5812;48.864;9.190;2023-02-19T02:03:18;5.73;;;5.73;;
11510;SDS011;5812;48.864;9.190;2023-02-19T02:08:29;6.30;;;6.30;;
11510;SDS011;5812;48.864;9.190;2023-02-19T02:11:15;6.47;;;6.47;;
11510;SDS011;5812;48.864;9.190;2023-02-19T02:13:41;6.30;;;6.30;;
11510;SDS011;5812;48.864;9.190;2023-02-19T02:30:26;4.83;;;4.83;;
11510;SDS011;5812;48.864;9.190;2023-02-19T02:35:28;4.83;;;4.83;;
11510;SDS011;5812;48.864;9.190;2023-02-19T02:37:59;4.50;;;4.50;;
11510;SDS011;5812;48.864;9.190;2023-02-19T02:40:29;4.27;;;4.27;;
11510;SDS011;5812;48.864;9.190;2023-02-19T02:42:58;4.53;;;4.53;;
11510;SDS011;5812;48.864;9.190;2023-02-19T02:45:27;4.37;;;4.37;;
11510;SDS011;5812;48.864;9.190;2023-02-19T02:50:55;4.33;;;4.33;;
11510;SDS011;5812;48.864;9.190;2023-02-19T02:53:54;4.93;;;4.93;;
11510;SDS011;5812;48.864;9.190;2023-02-19T02:56:43;4.87;;;4.87;;
11510;SDS011;5812;48.864;9.190;2023-02-19T02:59:12;4.33;;;4.33;;
11510;SDS011;5812;48.864;9.190;2023-02-19T03:04:31;4.23;;;4.23;;
11510;SDS011;5812;48.864;9.190;2023-02-19T03:07:02;4.70;;;4.70;;
11510;SDS011;5812;48.864;9.190;2023-02-19T03:09:36;4.77;;;4.77;;
11510;SDS011;5812;48.864;9.190;2023-02-19T03:12:07;4.80;;;4.80;;
11510;SDS011;5812;48.864;9.190;2023-02-19T03:14:56;4.77;;;4.77;;
11510;SDS011;5812;48.864;9.190;2023-02-19T03:17:46;4.70;;;4.70;;
11510;SDS011;5812;48.864;9.190;2023-02-19T03:20:35;4.10;;;4.10;;
11510;SDS011;5812;48.864;9.190;2023-02-19T03:23:06;4.53;;;4.53;;
11510;SDS011;5812;48.864;9.190;2023-02-19T03:25:35;4.63;;;4.63;;
11510;SDS011;5812;48.864;9.190;2023-02-19T03:28:23;4.17;;;4.17;;
11510;SDS011;5812;48.864;9.190;2023-02-19T03:31:12;4.30;;;4.30;;
11510;SDS011;5812;48.864;9.190;2023-02-19T03:33:42;4.70;;;4.70;;
11510;SDS011;5812;48.864;9.190;2023-02-19T03:36:11;4.20;;;4.20;;
11510;SDS011;5812;48.864;9.190;2023-02-19T03:38:51;4.17;;;4.17;;
11510;SDS011;5812;48.864;9.190;2023-02-19T03:41:35;3.90;;;3.90;;
11510;SDS011;5812;48.864;9.190;2023-02-19T03:47:20;4.40;;;4.40;;
11510;SDS011;5812;48.864;9.190;2023-02-19T03:50:00;3.93;;;3.93;;
11510;SDS011;5812;48.864;9.190;2023-02-19T03:52:55;3.43;;;3.43;;
11510;SDS011;5812;48.864;9.190;2023-02-19T03:55:39;3.37;;;3.37;;
11510;SDS011;5812;48.864;9.190;2023-02-19T03:58:14;3.60;;;3.60;;
11510;SDS011;5812;48.864;9.190;2023-02-19T04:01:15;3.23;;;3.23;;
11510;SDS011;5812;48.864;9.190;2023-02-19T04:06:40;2.70;;;2.70;;
11510;SDS011;5812;48.864;9.190;2023-02-19T04:09:08;2.37;;;2.37;;
11510;SDS011;5812;48.864;9.190;2023-02-19T04:11:37;2.57;;;2.57;;
11510;SDS011;5812;48.864;9.190;2023-02-19T04:14:07;2.93;;;2.93;;
11510;SDS011;5812;48.864;9.190;2023-02-19T04:16:40;2.60;;;2.60;;
11510;SDS011;5812;48.864;9.190;2023-02-19T04:19:09;2.80;;;2.80;;
11510;SDS011;5812;48.864;9.190;2023-02-19T04:21:38;2.80;;;2.80;;
11510;SDS011;5812;48.864;9.190;2023-02-19T04:24:05;2.10;;;2.10;;
11510;SDS011;5812;48.864;9.190;2023-02-19T04:26:36;2.03;;;2.03;;
11510;SDS011;5812;48.864;9.190;2023-02-19T04:29:02;2.50;;;2.50;;
11510;SDS011;5812;48.864;9.190;2023-02-19T04:31:28;1.20;;;1.20;;
11510;SDS011;5812;48.864;9.190;2023-02-19T04:33:55;0.73;;;0.73;;
11510;SDS011;5812;48.864;9.190;2023-02-19T04:36:20;0.30;;;0.30;;
11510;SDS011;5812;48.864;9.190;2023-02-19T04:38:46;0.30;;;0.30;;
11510;SDS011;5812;48.864;9.190;2023-02-19T04:41:12;0.40;;;0.40;;
11510;SDS011;5812;48.864;9.190;2023-02-19T04:43:37;0.40;;;0.40;;
11510;SDS011;5812;48.864;9.190;2023-02-19T04:46:03;0.27;;;0.27;;
11510;SDS011;5812;48.864;9.190;2023-02-19T04:48:29;0.40;;;0.40;;
11510;SDS011;5812;48.864;9.190;2023-02-19T04:50:54;0.40;;;0.40;;
11510;SDS011;5812;48.864;9.190;2023-02-19T04:53:20;0.40;;;0.40;;
11510;SDS011;5812;48.864;9.190;2023-02-19T04:55:45;0.40;;;0.40;;
11510;SDS011;5812;48.864;9.190;2023-02-19T04:58:12;0.70;;;0.70;;
11510;SDS011;5812;48.864;9.190;2023-02-19T05:00:38;0.70;;;0.70;;
11510;SDS011;5812;48.864;9.190;2023-02-19T05:03:04;0.70;;;0.70;;
11510;SDS011;5812;48.864;9.190;2023-02-19T05:05:29;0.70;;;0.70;;
11510;SDS011;5812;48.864;9.190;2023-02-19T05:07:55;0.67;;;0.67;;
11510;SDS011;5812;48.864;9.190;2023-02-19T05:10:21;0.70;;;0.70;;
11510;SDS011;5812;48.864;9.190;2023-02-19T05:12:47;0.50;;;0.50;;
11510;SDS011;5812;48.864;9.190;2023-02-19T05:15:12;0.40;;;0.40;;
11510;SDS011;5812;48.864;9.190;2023-02-19T05:17:38;0.60;;;0.60;;
11510;SDS011;5812;48.864;9.190;2023-02-19T05:20:03;0.50;;;0.50;;
11510;SDS011;5812;48.864;9.190;2023-02-19T05:22:29;0.60;;;0.60;;
11510;SDS011;5812;48.864;9.190;2023-02-19T05:24:55;0.60;;;0.60;;
11510;SDS011;5812;48.864;9.190;2023-02-19T05:27:20;0.50;;;0.50;;
11510;SDS011;5812;48.864;9.190;2023-02-19T05:29:46;0.60;;;0.60;;
11510;SDS011;5812;48.864;9.190;2023-02-19T05:32:11;0.40;;;0.40;;
11510;SDS011;5812;48.864;9.190;2023-02-19T05:34:37;0.60;;;0.60;;
11510;SDS011;5812;48.864;9.190;2023-02-19T05:37:02;0.60;;;0.60;;
11510;SDS011;5812;48.864;9.190;2023-02-19T05:39:28;0.50;;;0.50;;
11510;SDS011;5812;48.864;9.190;2023-02-19T05:41:53;0.40;;;0.40;;
11510;SDS011;5812;48.864;9.190;2023-02-19T05:44:19;0.40;;;0.40;;
11510;SDS011;5812;48.864;9.190;2023-02-19T05:46:45;0.40;;;0.40;;
11510;SDS011;5812;48.864;9.190;2023-02-19T05:49:10;0.40;;;0.40;;
11510;SDS011;5812;48.864;9.190;2023-02-19T05:51:36;0.13;;;0.13;;
11510;SDS011;5812;48.864;9.190;2023-02-19T05:54:01;0.20;;;0.20;;
11510;SDS011;5812;48.864;9.190;2023-02-19T05:56:40;0.30;;;0.30;;
11510;SDS011;5812;48.864;9.190;2023-02-19T06:01:43;0.20;;;0.20;;
11510;SDS011;5812;48.864;9.190;2023-02-19T06:04:09;0.30;;;0.30;;
11510;SDS011;5812;48.864;9.190;2023-02-19T06:06:36;0.27;;;0.27;;
11510;SDS011;5812;48.864;9.190;2023-02-19T06:09:03;0.10;;;0.10;;
11510;SDS011;5812;48.864;9.190;2023-02-19T06:11:29;0.30;;;0.30;;
11510;SDS011;5812;48.864;9.190;2023-02-19T06:13:54;0.40;;;0.40;;
11510;SDS011;5812;48.864;9.190;2023-02-19T06:16:20;0.33;;;0.33;;
11510;SDS011;5812;48.864;9.190;2023-02-19T06:18:47;0.50;;;0.50;;
11510;SDS011;5812;48.864;9.190;2023-02-19T06:21:13;0.50;;;0.50;;
11510;SDS011;5812;48.864;9.190;2023-02-19T06:23:40;0.40;;;0.40;;
11510;SDS011;5812;48.864;9.190;2023-02-19T06:26:07;0.57;;;0.57;;
11510;SDS011;5812;48.864;9.190;2023-02-19T06:28:35;0.53;;;0.53;;
11510;SDS011;5812;48.864;9.190;2023-02-19T06:31:01;0.60;;;0.60;;
11510;SDS011;5812;48.864;9.190;2023-02-19T06:33:27;0.77;;;0.77;;
11510;SDS011;5812;48.864;9.190;2023-02-19T06:35:53;0.50;;;0.50;;
11510;SDS011;5812;48.864;9.190;2023-02-19T06:38:22;0.40;;;0.40;;
11510;SDS011;5812;48.864;9.190;2023-02-19T06:40:48;0.57;;;0.57;;
11510;SDS011;5812;48.864;9.190;2023-02-19T06:43:14;1.67;;;1.67;;
11510;SDS011;5812;48.864;9.190;2023-02-19T06:45:39;0.50;;;0.50;;
11510;SDS011;5812;48.864;9.190;2023-02-19T06:48:05;0.47;;;0.47;;
11510;SDS011;5812;48.864;9.190;2023-02-19T06:50:30;0.53;;;0.53;;
11510;SDS011;5812;48.864;9.190;2023-02-19T06:52:56;0.70;;;0.70;;
11510;SDS011;5812;48.864;9.190;2023-02-19T06:55:21;0.90;;;0.90;;
11510;SDS011;5812;48.864;9.190;2023-02-19T06:57:47;0.87;;;0.87;;
11510;SDS011;5812;48.864;9.190;2023-02-19T07:00:13;1.00;;;1.00;;
11510;SDS011;5812;48.864;9.190;2023-02-19T07:02:38;1.07;;;1.07;;
11510;SDS011;5812;48.864;9.190;2023-02-19T07:05:04;1.40;;;1.40;;
11510;SDS011;5812;48.864;9.190;2023-02-19T07:07:30;1.50;;;1.50;;
11510;SDS011;5812;48.864;9.190;2023-02-19T07:09:56;1.10;;;1.10;;
11510;SDS011;5812;48.864;9.190;2023-02-19T07:12:21;1.40;;;1.40;;
11510;SDS011;5812;48.864;9.190;2023-02-19T07:14:47;0.93;;;0.93;;
11510;SDS011;5812;48.864;9.190;2023-02-19T07:17:12;0.97;;;0.97;;
11510;SDS011;5812;48.864;9.190;2023-02-19T07:19:38;1.10;;;1.10;;
11510;SDS011;5812;48.864;9.190;2023-02-19T07:22:03;0.97;;;0.97;;
11510;SDS011;5812;48.864;9.190;2023-02-19T07:24:29;0.93;;;0.93;;
11510;SDS011;5812;48.864;9.190;2023-02-19T07:26:54;1.00;;;1.00;;
11510;SDS011;5812;48.864;9.190;2023-02-19T07:29:20;0.80;;;0.80;;
11510;SDS011;5812;48.864;9.190;2023-02-19T07:31:45;0.80;;;0.80;;
11510;SDS011;5812;48.864;9.190;2023-02-19T07:34:11;1.20;;;1.20;;
11510;SDS011;5812;48.864;9.190;2023-02-19T07:36:37;1.10;;;1.10;;
11510;SDS011;5812;48.864;9.190;2023-02-19T07:39:02;1.33;;;1.33;;
11510;SDS011;5812;48.864;9.190;2023-02-19T07:41:29;0.87;;;0.87;;
11510;SDS011;5812;48.864;9.190;2023-02-19T07:43:55;1.20;;;1.20;;
11510;SDS011;5812;48.864;9.190;2023-02-19T07:46:20;1.10;;;1.10;;
11510;SDS011;5812;48.864;9.190;2023-02-19T07:48:46;1.00;;;1.00;;
11510;SDS011;5812;48.864;9.190;2023-02-19T07:51:13;1.13;;;1.13;;
11510;SDS011;5812;48.864;9.190;2023-02-19T07:53:42;1.07;;;1.07;;
11510;SDS011;5812;48.864;9.190;2023-02-19T07:56:12;1.13;;;1.13;;
11510;SDS011;5812;48.864;9.190;2023-02-19T07:58:38;1.03;;;1.03;;
11510;SDS011;5812;48.864;9.190;2023-02-19T08:01:20;1.20;;;1.20;;
11510;SDS011;5812;48.864;9.190;2023-02-19T08:04:06;0.90;;;0.90;;
11510;SDS011;5812;48.864;9.190;2023-02-19T08:06:32;1.20;;;1.20;;
11510;SDS011;5812;48.864;9.190;2023-02-19T08:08:57;1.10;;;1.10;;
11510;SDS011;5812;48.864;9.190;2023-02-19T08:11:23;1.20;;;1.20;;
11510;SDS011;5812;48.864;9.190;2023-02-19T08:14:07;1.50;;;1.50;;
11510;SDS011;5812;48.864;9.190;2023-02-19T08:16:32;1.20;;;1.20;;
11510;SDS011;5812;48.864;9.190;2023-02-19T08:18:58;1.07;;;1.07;;
11510;SDS011;5812;48.864;9.190;2023-02-19T08:21:24;1.30;;;1.30;;
11510;SDS011;5812;48.864;9.190;2023-02-19T08:23:49;1.47;;;1.47;;
11510;SDS011;5812;48.864;9.190;2023-02-19T08:26:15;1.40;;;1.40;;
11510;SDS011;5812;48.864;9.190;2023-02-19T08:28:41;1.40;;;1.40;;
11510;SDS011;5812;48.864;9.190;2023-02-19T08:31:07;1.03;;;1.03;;
11510;SDS011;5812;48.864;9.190;2023-02-19T08:33:34;1.20;;;1.20;;
11510;SDS011;5812;48.864;9.190;2023-02-19T08:36:01;0.90;;;0.90;;
11510;SDS011;5812;48.864;9.190;2023-02-19T08:38:29;0.60;;;0.60;;
11510;SDS011;5812;48.864;9.190;2023-02-19T08:40:55;0.90;;;0.90;;
11510;SDS011;5812;48.864;9.190;2023-02-19T08:43:21;0.80;;;0.80;;
11510;SDS011;5812;48.864;9.190;2023-02-19T08:45:46;0.73;;;0.73;;
11510;SDS011;5812;48.864;9.190;2023-02-19T08:48:12;0.50;;;0.50;;
11510;SDS011;5812;48.864;9.190;2023-02-19T08:50:38;0.70;;;0.70;;
11510;SDS011;5812;48.864;9.190;2023-02-19T08:53:04;0.60;;;0.60;;
11510;SDS011;5812;48.864;9.190;2023-02-19T08:55:31;0.63;;;0.63;;
11510;SDS011;5812;48.864;9.190;2023-02-19T08:57:57;0.60;;;0.60;;
11510;SDS011;5812;48.864;9.190;2023-02-19T09:00:22;0.50;;;0.50;;
11510;SDS011;5812;48.864;9.190;2023-02-19T09:02:49;0.57;;;0.57;;
11510;SDS011;5812;48.864;9.190;2023-02-19T09:05:14;0.80;;;0.80;;
11510;SDS011;5812;48.864;9.190;2023-02-19T09:07:41;1.10;;;1.10;;
11510;SDS011;5812;48.864;9.190;2023-02-19T09:10:09;0.80;;;0.80;;
11510;SDS011;5812;48.864;9.190;2023-02-19T09:12:36;1.33;;;1.33;;
11510;SDS011;5812;48.864;9.190;2023-02-19T09:15:03;1.33;;;1.33;;
11510;SDS011;5812;48.864;9.190;2023-02-19T09:17:29;1.07;;;1.07;;
11510;SDS011;5812;48.864;9.190;2023-02-19T09:19:54;1.27;;;1.27;;
11510;SDS011;5812;48.864;9.190;2023-02-19T09:22:20;1.23;;;1.23;;
11510;SDS011;5812;48.864;9.190;2023-02-19T09:24:45;1.20;;;1.20;;
11510;SDS011;5812;48.864;9.190;2023-02-19T09:27:15;1.20;;;1.20;;
11510;SDS011;5812;48.864;9.190;2023-02-19T09:29:41;0.87;;;0.87;;
11510;SDS011;5812;48.864;9.190;2023-02-19T09:32:07;1.40;;;1.40;;
11510;SDS011;5812;48.864;9.190;2023-02-19T09:34:32;1.00;;;1.00;;
11510;SDS011;5812;48.864;9.190;2023-02-19T09:36:58;0.80;;;0.80;;
11510;SDS011;5812;48.864;9.190;2023-02-19T09:39:24;1.33;;;1.33;;
11510;SDS011;5812;48.864;9.190;2023-02-19T09:41:50;1.00;;;1.00;;
11510;SDS011;5812;48.864;9.190;2023-02-19T09:44:35;1.50;;;1.50;;
11510;SDS011;5812;48.864;9.190;2023-02-19T09:47:11;1.20;;;1.20;;
11510;SDS011;5812;48.864;9.190;2023-02-19T09:49:43;0.90;;;0.90;;
11510;SDS011;5812;48.864;9.190;2023-02-19T09:52:35;1.03;;;1.03;;
11510;SDS011;5812;48.864;9.190;2023-02-19T09:55:04;1.33;;;1.33;;
11510;SDS011;5812;48.864;9.190;2023-02-19T09:57:52;0.77;;;0.77;;
11510;SDS011;5812;48.864;9.190;2023-02-19T10:00:22;0.90;;;0.90;;
11510;SDS011;5812;48.864;9.190;2023-02-19T10:02:50;0.80;;;0.80;;
11510;SDS011;5812;48.864;9.190;2023-02-19T10:05:24;0.90;;;0.90;;
11510;SDS011;5812;48.864;9.190;2023-02-19T10:07:51;0.77;;;0.77;;
11510;SDS011;5812;48.864;9.190;2023-02-19T10:10:36;1.00;;;1.00;;
11510;SDS011;5812;48.864;9.190;2023-02-19T10:13:16;0.70;;;0.70;;
11510;SDS011;5812;48.864;9.190;2023-02-19T10:15:47;0.80;;;0.80;;
11510;SDS011;5812;48.864;9.190;2023-02-19T10:18:26;1.00;;;1.00;;
11510;SDS011;5812;48.864;9.190;2023-02-19T10:20:55;0.57;;;0.57;;
11510;SDS011;5812;48.864;9.190;2023-02-19T10:23:21;0.77;;;0.77;;
11510;SDS011;5812;48.864;9.190;2023-02-19T10:25:49;0.50;;;0.50;;
11510;SDS011;5812;48.864;9.190;2023-02-19T10:28:30;0.80;;;0.80;;
11510;SDS011;5812;48.864;9.190;2023-02-19T10:30:58;0.53;;;0.53;;
11510;SDS011;5812;48.864;9.190;2023-02-19T10:33:25;0.60;;;0.60;;
11510;SDS011;5812;48.864;9.190;2023-02-19T10:38:20;1.00;;;1.00;;
11510;SDS011;5812;48.864;9.190;2023-02-19T10:43:39;0.70;;;0.70;;
11510;SDS011;5812;48.864;9.190;2023-02-19T10:46:17;0.70;;;0.70;;
11510;SDS011;5812;48.864;9.190;2023-02-19T11:14:54;0.70;;;0.70;;
11510;SDS011;5812;48.864;9.190;2023-02-19T11:17:24;0.83;;;0.83;;
11510;SDS011;5812;48.864;9.190;2023-02-19T11:19:53;0.90;;;0.90;;
11510;SDS011;5812;48.864;9.190;2023-02-19T11:27:52;0.50;;;0.50;;
11510;SDS011;5812;48.864;9.190;2023-02-19T11:36:04;0.63;;;0.63;;
11510;SDS011;5812;48.864;9.190;2023-02-19T11:38:41;0.80;;;0.80;;
11510;SDS011;5812;48.864;9.190;2023-02-19T11:44:40;0.70;;;0.70;;
11510;SDS011;5812;48.864;9.190;2023-02-19T11:49:48;0.90;;;0.90;;
11510;SDS011;5812;48.864;9.190;2023-02-19T11:52:41;1.00;;;1.00;;
11510;SDS011;5812;48.864;9.190;2023-02-19T12:06:22;1.10;;;1.10;;
11510;SDS011;5812;48.864;9.190;2023-02-19T12:09:24;1.00;;;1.00;;
11510;SDS011;5812;48.864;9.190;2023-02-19T12:12:21;1.00;;;1.00;;
11510;SDS011;5812;48.864;9.190;2023-02-19T12:14:59;0.80;;;0.80;;
11510;SDS011;5812;48.864;9.190;2023-02-19T12:17:35;0.73;;;0.73;;
11510;SDS011;5812;48.864;9.190;2023-02-19T12:20:33;0.50;;;0.50;;
11510;SDS011;5812;48.864;9.190;2023-02-19T12:23:19;0.63;;;0.63;;
11510;SDS011;5812;48.864;9.190;2023-02-19T12:28:56;1.07;;;1.07;;
11510;SDS011;5812;48.864;9.190;2023-02-19T12:38:13;0.90;;;0.90;;
11510;SDS011;5812;48.864;9.190;2023-02-19T12:43:34;0.70;;;0.70;;
11510;SDS011;5812;48.864;9.190;2023-02-19T12:46:07;0.70;;;0.70;;
11510;SDS011;5812;48.864;9.190;2023-02-19T12:54:29;0.90;;;0.90;;
11510;SDS011;5812;48.864;9.190;2023-02-19T12:59:54;0.90;;;0.90;;
11510;SDS011;5812;48.864;9.190;2023-02-19T13:05:40;0.60;;;0.60;;
11510;SDS011;5812;48.864;9.190;2023-02-19T13:11:20;0.60;;;0.60;;
11510;SDS011;5812;48.864;9.190;2023-02-19T13:13:53;0.80;;;0.80;;
11510;SDS011;5812;48.864;9.190;2023-02-19T13:16:24;1.20;;;1.20;;
11510;SDS011;5812;48.864;9.190;2023-02-19T13:18:57;0.90;;;0.90;;
11510;SDS011;5812;48.864;9.190;2023-02-19T13:21:27;1.00;;;1.00;;
11510;SDS011;5812;48.864;9.190;2023-02-19T13:24:16;0.87;;;0.87;;
11510;SDS011;5812;48.864;9.190;2023-02-19T13:35:03;1.17;;;1.17;;
11510;SDS011;5812;48.864;9.190;2023-02-19T13:37:50;1.10;;;1.10;;
11510;SDS011;5812;48.864;9.190;2023-02-19T13:40:33;1.03;;;1.03;;
11510;SDS011;5812;48.864;9.190;2023-02-19T13:43:01;1.30;;;1.30;;
11510;SDS011;5812;48.864;9.190;2023-02-19T13:48:01;1.57;;;1.57;;
11510;SDS011;5812;48.864;9.190;2023-02-19T13:50:39;1.53;;;1.53;;
11510;SDS011;5812;48.864;9.190;2023-02-19T14:14:39;1.47;;;1.47;;
11510;SDS011;5812;48.864;9.190;2023-02-19T14:22:49;0.90;;;0.90;;
11510;SDS011;5812;48.864;9.190;2023-02-19T14:27:51;1.23;;;1.23;;
11510;SDS011;5812;48.864;9.190;2023-02-19T14:30:18;1.33;;;1.33;;
11510;SDS011;5812;48.864;9.190;2023-02-19T14:32:46;1.10;;;1.10;;
11510;SDS011;5812;48.864;9.190;2023-02-19T14:35:20;1.07;;;1.07;;
11510;SDS011;5812;48.864;9.190;2023-02-19T14:37:49;1.33;;;1.33;;
11510;SDS011;5812;48.864;9.190;2023-02-19T14:40:17;1.10;;;1.10;;
11510;SDS011;5812;48.864;9.190;2023-02-19T14:42:52;1.00;;;1.00;;
11510;SDS011;5812;48.864;9.190;2023-02-19T14:45:20;1.20;;;1.20;;
11510;SDS011;5812;48.864;9.190;2023-02-19T14:47:46;0.80;;;0.80;;
11510;SDS011;5812;48.864;9.190;2023-02-19T14:50:18;1.13;;;1.13;;
11510;SDS011;5812;48.864;9.190;2023-02-19T14:52:51;0.80;;;0.80;;
11510;SDS011;5812;48.864;9.190;2023-02-19T14:55:26;1.03;;;1.03;;
11510;SDS011;5812;48.864;9.190;2023-02-19T14:58:05;1.33;;;1.33;;
11510;SDS011;5812;48.864;9.190;2023-02-19T15:00:39;1.20;;;1.20;;
11510;SDS011;5812;48.864;9.190;2023-02-19T15:03:06;0.87;;;0.87;;
11510;SDS011;5812;48.864;9.190;2023-02-19T15:05:53;1.13;;;1.13;;
11510;SDS011;5812;48.864;9.190;2023-02-19T15:08:45;1.80;;;1.80;;
11510;SDS011;5812;48.864;9.190;2023-02-19T15:11:18;1.73;;;1.73;;
11510;SDS011;5812;48.864;9.190;2023-02-19T15:13:50;1.00;;;1.00;;
11510;SDS011;5812;48.864;9.190;2023-02-19T15:16:20;1.27;;;1.27;;
11510;SDS011;5812;48.864;9.190;2023-02-19T15:18:48;1.23;;;1.23;;
11510;SDS011;5812;48.864;9.190;2023-02-19T15:21:37;1.30;;;1.30;;
11510;SDS011;5812;48.864;9.190;2023-02-19T15:24:03;1.40;;;1.40;;
11510;SDS011;5812;48.864;9.190;2023-02-19T15:26:35;1.70;;;1.70;;
11510;SDS011;5812;48.864;9.190;2023-02-19T15:29:11;1.57;;;1.57;;
11510;SDS011;5812;48.864;9.190;2023-02-19T15:34:21;1.40;;;1.40;;
11510;SDS011;5812;48.864;9.190;2023-02-19T15:36:49;1.37;;;1.37;;
11510;SDS011;5812;48.864;9.190;2023-02-19T15:39:21;1.07;;;1.07;;
11510;SDS011;5812;48.864;9.190;2023-02-19T15:41:53;1.10;;;1.10;;
11510;SDS011;5812;48.864;9.190;2023-02-19T15:44:39;1.63;;;1.63;;
11510;SDS011;5812;48.864;9.190;2023-02-19T15:47:32;1.27;;;1.27;;
11510;SDS011;5812;48.864;9.190;2023-02-19T15:50:10;1.03;;;1.03;;
11510;SDS011;5812;48.864;9.190;2023-02-19T15:58:19;1.50;;;1.50;;
11510;SDS011;5812;48.864;9.190;2023-02-19T16:03:28;1.40;;;1.40;;
11510;SDS011;5812;48.864;9.190;2023-02-19T16:08:27;0.90;;;0.90;;
11510;SDS011;5812;48.864;9.190;2023-02-19T16:10:59;1.20;;;1.20;;
11510;SDS011;5812;48.864;9.190;2023-02-19T16:13:31;1.30;;;1.30;;
11510;SDS011;5812;48.864;9.190;2023-02-19T16:15:59;1.30;;;1.30;;
11510;SDS011;5812;48.864;9.190;2023-02-19T16:18:44;1.23;;;1.23;;
11510;SDS011;5812;48.864;9.190;2023-02-19T16:21:13;0.90;;;0.90;;
11510;SDS011;5812;48.864;9.190;2023-02-19T16:23:43;1.27;;;1.27;;
11510;SDS011;5812;48.864;9.190;2023-02-19T16:26:10;1.00;;;1.00;;
11510;SDS011;5812;48.864;9.190;2023-02-19T16:28:37;1.30;;;1.30;;
11510;SDS011;5812;48.864;9.190;2023-02-19T16:31:06;1.40;;;1.40;;
11510;SDS011;5812;48.864;9.190;2023-02-19T16:33:40;1.33;;;1.33;;
11510;SDS011;5812;48.864;9.190;2023-02-19T16:41:31;1.43;;;1.43;;
11510;SDS011;5812;48.864;9.190;2023-02-19T16:46:49;1.87;;;1.87;;
11510;SDS011;5812;48.864;9.190;2023-02-19T16:49:21;1.43;;;1.43;;
11510;SDS011;5812;48.864;9.190;2023-02-19T16:51:47;1.57;;;1.57;;
11510;SDS011;5812;48.864;9.190;2023-02-19T16:54:13;1.50;;;1.50;;
11510;SDS011;5812;48.864;9.190;2023-02-19T16:56:39;1.50;;;1.50;;
11510;SDS011;5812;48.864;9.190;2023-02-19T16:59:04;1.70;;;1.70;;
11510;SDS011;5812;48.864;9.190;2023-02-19T17:01:33;1.63;;;1.63;;
11510;SDS011;5812;48.864;9.190;2023-02-19T17:04:02;1.40;;;1.40;;
11510;SDS011;5812;48.864;9.190;2023-02-19T17:06:30;1.80;;;1.80;;
11510;SDS011;5812;48.864;9.190;2023-02-19T17:09:01;2.27;;;2.27;;
11510;SDS011;5812;48.864;9.190;2023-02-19T17:11:31;1.80;;;1.80;;
11510;SDS011;5812;48.864;9.190;2023-02-19T17:13:56;1.97;;;1.97;;
11510;SDS011;5812;48.864;9.190;2023-02-19T17:16:23;2.00;;;2.00;;
11510;SDS011;5812;48.864;9.190;2023-02-19T17:18:51;2.00;;;2.00;;
11510;SDS011;5812;48.864;9.190;2023-02-19T17:21:22;1.70;;;1.70;;
11510;SDS011;5812;48.864;9.190;2023-02-19T17:23:49;1.40;;;1.40;;
11510;SDS011;5812;48.864;9.190;2023-02-19T17:26:17;2.03;;;2.03;;
11510;SDS011;5812;48.864;9.190;2023-02-19T17:28:47;1.67;;;1.67;;
11510;SDS011;5812;48.864;9.190;2023-02-19T17:31:13;1.83;;;1.83;;
11510;SDS011;5812;48.864;9.190;2023-02-19T17:33:39;2.10;;;2.10;;
11510;SDS011;5812;48.864;9.190;2023-02-19T17:36:05;2.07;;;2.07;;
11510;SDS011;5812;48.864;9.190;2023-02-19T17:38:32;1.80;;;1.80;;
11510;SDS011;5812;48.864;9.190;2023-02-19T17:40:57;2.03;;;2.03;;
11510;SDS011;5812;48.864;9.190;2023-02-19T17:43:23;1.53;;;1.53;;
11510;SDS011;5812;48.864;9.190;2023-02-19T17:45:49;1.63;;;1.63;;
11510;SDS011;5812;48.864;9.190;2023-02-19T17:48:14;1.87;;;1.87;;
11510;SDS011;5812;48.864;9.190;2023-02-19T17:50:41;2.20;;;2.20;;
11510;SDS011;5812;48.864;9.190;2023-02-19T17:53:07;2.33;;;2.33;;
11510;SDS011;5812;48.864;9.190;2023-02-19T17:55:33;2.10;;;2.10;;
11510;SDS011;5812;48.864;9.190;2023-02-19T17:57:59;1.90;;;1.90;;
11510;SDS011;5812;48.864;9.190;2023-02-19T18:00:26;2.00;;;2.00;;
11510;SDS011;5812;48.864;9.190;2023-02-19T18:02:56;1.67;;;1.67;;
11510;SDS011;5812;48.864;9.190;2023-02-19T18:05:21;1.87;;;1.87;;
11510;SDS011;5812;48.864;9.190;2023-02-19T18:07:47;2.07;;;2.07;;
11510;SDS011;5812;48.864;9.190;2023-02-19T18:10:14;1.93;;;1.93;;
11510;SDS011;5812;48.864;9.190;2023-02-19T18:12:41;1.87;;;1.87;;
11510;SDS011;5812;48.864;9.190;2023-02-19T18:15:07;1.70;;;1.70;;
11510;SDS011;5812;48.864;9.190;2023-02-19T18:17:35;2.30;;;2.30;;
11510;SDS011;5812;48.864;9.190;2023-02-19T18:20:00;1.67;;;1.67;;
11510;SDS011;5812;48.864;9.190;2023-02-19T18:22:28;1.87;;;1.87;;